LFKB 210400Z AUTO 22005KT 9999 SCT029 06/04 Q1018 NOSIG

ElémentsDécodage
LFKB Station météo située sur l'aérodrome de BASTIA Poretta
210400Z émis le 21 du mois à 04h00 UTC
AUTO Bulletin édité par un automate
22005KT vent du 220°, 05 noeuds
9999 visibilité horizontale supérieure à 10 Km
SCT029 nuages épars (3/8 à 4/8) à 2900 pieds
06/04 température 06°C, point de rosée 04°C
 soit une humidité relative de 87%
Q1018 la pression au niveau de la mer (QNH) est de 1018 hPa
NOSIG Pas de changement significatif prévu au cours des deux heures suivant l'heure de l'observation